sensor_id;sensor_type;location;lat;lon;timestamp;pressure;altitude;pressure_sealevel;temperature;humidity
63819;BME280;49970;54.976;73.248;2022-12-07T00:01:25;102898.75;;;-16.97;79.44
63819;BME280;49970;54.976;73.248;2022-12-07T00:03:54;102896.59;;;-17.02;79.91
63819;BME280;49970;54.976;73.248;2022-12-07T00:06:27;102895.22;;;-16.99;80.00
63819;BME280;49970;54.976;73.248;2022-12-07T00:08:54;102906.59;;;-16.94;79.30
63819;BME280;49970;54.976;73.248;2022-12-07T00:11:21;102900.66;;;-16.94;79.32
63819;BME280;49970;54.976;73.248;2022-12-07T00:13:55;102903.56;;;-16.90;79.24
63819;BME280;49970;54.976;73.248;2022-12-07T00:16:29;102897.59;;;-16.90;79.22
63819;BME280;49970;54.976;73.248;2022-12-07T00:18:56;102905.56;;;-16.86;79.70
63819;BME280;49970;54.976;73.248;2022-12-07T00:21:25;102908.09;;;-16.86;79.55
63819;BME280;49970;54.976;73.248;2022-12-07T00:23:53;102902.03;;;-16.88;79.55
63819;BME280;49970;54.976;73.248;2022-12-07T00:26:27;102913.56;;;-17.01;78.62
63819;BME280;49970;54.976;73.248;2022-12-07T00:28:55;102904.59;;;-17.08;78.74
63819;BME280;49970;54.976;73.248;2022-12-07T00:31:34;102915.72;;;-17.06;79.30
63819;BME280;49970;54.976;73.248;2022-12-07T00:34:17;102915.09;;;-17.14;79.48
63819;BME280;49970;54.976;73.248;2022-12-07T00:36:43;102919.94;;;-17.17;79.62
63819;BME280;49970;54.976;73.248;2022-12-07T00:39:10;102908.53;;;-17.22;79.09
63819;BME280;49970;54.976;73.248;2022-12-07T00:41:36;102921.31;;;-17.20;79.30
63819;BME280;49970;54.976;73.248;2022-12-07T00:44:03;102923.19;;;-17.18;78.77
63819;BME280;49970;54.976;73.248;2022-12-07T00:46:29;102926.00;;;-17.15;79.58
63819;BME280;49970;54.976;73.248;2022-12-07T00:49:00;102913.22;;;-17.16;79.48
63819;BME280;49970;54.976;73.248;2022-12-07T00:51:27;102925.25;;;-17.03;78.92
63819;BME280;49970;54.976;73.248;2022-12-07T00:53:56;102909.78;;;-17.06;79.08
63819;BME280;49970;54.976;73.248;2022-12-07T00:56:28;102921.53;;;-16.97;79.25
63819;BME280;49970;54.976;73.248;2022-12-07T00:58:57;102915.97;;;-16.93;79.47
63819;BME280;49970;54.976;73.248;2022-12-07T01:01:29;102910.41;;;-16.99;79.06
63819;BME280;49970;54.976;73.248;2022-12-07T01:03:55;102916.88;;;-16.92;79.73
63819;BME280;49970;54.976;73.248;2022-12-07T01:06:23;102910.28;;;-16.90;78.77
63819;BME280;49970;54.976;73.248;2022-12-07T01:08:50;102914.06;;;-16.85;79.58
63819;BME280;49970;54.976;73.248;2022-12-07T01:11:19;102900.25;;;-16.89;78.90
63819;BME280;49970;54.976;73.248;2022-12-07T01:13:51;102871.00;;;-17.05;78.68
63819;BME280;49970;54.976;73.248;2022-12-07T01:16:18;102902.03;;;-16.88;78.93
63819;BME280;49970;54.976;73.248;2022-12-07T01:18:47;102913.31;;;-16.84;79.09
63819;BME280;49970;54.976;73.248;2022-12-07T01:21:20;102901.91;;;-16.89;79.23
63819;BME280;49970;54.976;73.248;2022-12-07T01:23:47;102908.47;;;-16.81;78.94
63819;BME280;49970;54.976;73.248;2022-12-07T01:26:24;102905.22;;;-16.80;78.61
63819;BME280;49970;54.976;73.248;2022-12-07T01:28:51;102895.69;;;-16.82;78.64
63819;BME280;49970;54.976;73.248;2022-12-07T01:31:20;102905.06;;;-16.81;78.56
63819;BME280;49970;54.976;73.248;2022-12-07T01:33:51;102899.09;;;-16.82;79.04
63819;BME280;49970;54.976;73.248;2022-12-07T01:38:56;102890.88;;;-16.79;78.86
63819;BME280;49970;54.976;73.248;2022-12-07T01:41:25;102879.34;;;-16.86;79.15
63819;BME280;49970;54.976;73.248;2022-12-07T01:44:17;102897.97;;;-16.75;78.93
63819;BME280;49970;54.976;73.248;2022-12-07T01:46:48;102897.81;;;-16.77;79.17
63819;BME280;49970;54.976;73.248;2022-12-07T01:49:24;102885.41;;;-16.74;78.45
63819;BME280;49970;54.976;73.248;2022-12-07T01:52:16;102894.78;;;-16.73;78.92
63819;BME280;49970;54.976;73.248;2022-12-07T01:54:45;102902.38;;;-16.73;78.60
63819;BME280;49970;54.976;73.248;2022-12-07T01:57:13;102895.44;;;-16.75;79.04
63819;BME280;49970;54.976;73.248;2022-12-07T01:59:42;102878.94;;;-16.80;78.49
63819;BME280;49970;54.976;73.248;2022-12-07T02:02:31;102893.63;;;-16.76;78.76
63819;BME280;49970;54.976;73.248;2022-12-07T02:05:05;102893.00;;;-16.74;78.31
63819;BME280;49970;54.976;73.248;2022-12-07T02:07:34;102892.13;;;-16.74;78.57
63819;BME280;49970;54.976;73.248;2022-12-07T02:10:16;102881.84;;;-16.76;78.48
63819;BME280;49970;54.976;73.248;2022-12-07T02:12:49;102877.03;;;-16.73;78.86
63819;BME280;49970;54.976;73.248;2022-12-07T02:15:25;102893.22;;;-16.71;78.42
63819;BME280;49970;54.976;73.248;2022-12-07T02:23:58;102878.00;;;-16.71;78.84
63819;BME280;49970;54.976;73.248;2022-12-07T02:27:07;102883.09;;;-16.71;78.63
63819;BME280;49970;54.976;73.248;2022-12-07T02:29:47;102887.16;;;-16.73;78.12
63819;BME280;49970;54.976;73.248;2022-12-07T02:32:27;102887.56;;;-16.78;78.78
63819;BME280;49970;54.976;73.248;2022-12-07T02:40:34;102876.22;;;-17.04;78.66
63819;BME280;49970;54.976;73.248;2022-12-07T02:43:12;102880.63;;;-17.01;78.57
63819;BME280;49970;54.976;73.248;2022-12-07T02:45:42;102885.69;;;-16.91;78.07
63819;BME280;49970;54.976;73.248;2022-12-07T02:48:12;102863.19;;;-17.08;78.60
63819;BME280;49970;54.976;73.248;2022-12-07T02:50:53;102885.44;;;-16.94;77.84
63819;BME280;49970;54.976;73.248;2022-12-07T02:53:29;102893.56;;;-16.88;78.71
63819;BME280;49970;54.976;73.248;2022-12-07T02:55:56;102885.69;;;-16.91;78.52
63819;BME280;49970;54.976;73.248;2022-12-07T02:58:35;102876.34;;;-16.92;78.55
63819;BME280;49970;54.976;73.248;2022-12-07T03:04:41;102893.16;;;-16.82;78.05
63819;BME280;49970;54.976;73.248;2022-12-07T03:09:52;102890.00;;;-16.90;77.91
63819;BME280;49970;54.976;73.248;2022-12-07T03:12:35;102893.31;;;-16.91;78.13
63819;BME280;49970;54.976;73.248;2022-12-07T03:15:12;102878.72;;;-16.94;78.06
63819;BME280;49970;54.976;73.248;2022-12-07T03:17:42;102900.41;;;-16.87;78.00
63819;BME280;49970;54.976;73.248;2022-12-07T03:20:17;102883.41;;;-16.98;78.04
63819;BME280;49970;54.976;73.248;2022-12-07T03:22:47;102907.84;;;-16.89;78.08
63819;BME280;49970;54.976;73.248;2022-12-07T03:25:15;102915.22;;;-16.92;77.92
63819;BME280;49970;54.976;73.248;2022-12-07T03:27:54;102915.09;;;-16.93;78.00
63819;BME280;49970;54.976;73.248;2022-12-07T03:31:00;102914.09;;;-16.95;77.57
63819;BME280;49970;54.976;73.248;2022-12-07T03:33:52;102917.13;;;-16.99;77.49
63819;BME280;49970;54.976;73.248;2022-12-07T03:36:40;102900.16;;;-17.11;77.28
63819;BME280;49970;54.976;73.248;2022-12-07T03:39:19;102920.94;;;-17.04;76.95
63819;BME280;49970;54.976;73.248;2022-12-07T03:41:48;102906.09;;;-17.10;77.76
63819;BME280;49970;54.976;73.248;2022-12-07T03:44:15;102913.56;;;-17.01;77.78
63819;BME280;49970;54.976;73.248;2022-12-07T03:46:44;102904.34;;;-17.01;77.51
63819;BME280;49970;54.976;73.248;2022-12-07T03:49:25;102905.97;;;-17.01;77.68
63819;BME280;49970;54.976;73.248;2022-12-07T03:54:40;102904.34;;;-17.01;77.23
63819;BME280;49970;54.976;73.248;2022-12-07T03:57:14;102899.28;;;-17.01;76.75
63819;BME280;49970;54.976;73.248;2022-12-07T03:59:41;102905.22;;;-17.00;77.32
63819;BME280;49970;54.976;73.248;2022-12-07T04:02:15;102906.75;;;-17.02;77.24
63819;BME280;49970;54.976;73.248;2022-12-07T04:04:42;102910.16;;;-17.02;77.25
63819;BME280;49970;54.976;73.248;2022-12-07T04:07:09;102913.56;;;-17.01;77.09
63819;BME280;49970;54.976;73.248;2022-12-07T04:09:36;102912.94;;;-16.99;77.42
63819;BME280;49970;54.976;73.248;2022-12-07T04:12:08;102905.97;;;-17.01;76.91
63819;BME280;49970;54.976;73.248;2022-12-07T04:14:41;102912.44;;;-16.95;76.96
63819;BME280;49970;54.976;73.248;2022-12-07T04:17:08;102909.91;;;-16.95;77.56
63819;BME280;49970;54.976;73.248;2022-12-07T04:19:37;102913.22;;;-16.96;77.44
63819;BME280;49970;54.976;73.248;2022-12-07T04:22:04;102915.84;;;-16.94;77.30
63819;BME280;49970;54.976;73.248;2022-12-07T04:24:32;102908.75;;;-16.98;77.14
63819;BME280;49970;54.976;73.248;2022-12-07T04:26:58;102907.78;;;-17.00;77.29
63819;BME280;49970;54.976;73.248;2022-12-07T04:29:29;102920.19;;;-17.03;76.66
63819;BME280;49970;54.976;73.248;2022-12-07T04:31:56;102902.19;;;-17.17;76.56
63819;BME280;49970;54.976;73.248;2022-12-07T04:34:34;102917.78;;;-17.12;77.15
63819;BME280;49970;54.976;73.248;2022-12-07T04:37:00;102905.88;;;-17.13;76.64
63819;BME280;49970;54.976;73.248;2022-12-07T04:39:31;102901.69;;;-17.13;76.98
63819;BME280;49970;54.976;73.248;2022-12-07T04:42:08;102908.25;;;-17.15;76.17
63819;BME280;49970;54.976;73.248;2022-12-07T04:44:39;102896.88;;;-17.20;77.40
63819;BME280;49970;54.976;73.248;2022-12-07T04:47:05;102898.91;;;-17.26;76.65
63819;BME280;49970;54.976;73.248;2022-12-07T04:49:31;102890.56;;;-17.25;76.48
63819;BME280;49970;54.976;73.248;2022-12-07T04:52:08;102896.25;;;-17.17;77.10
63819;BME280;49970;54.976;73.248;2022-12-07T04:54:34;102906.88;;;-17.11;76.95
63819;BME280;49970;54.976;73.248;2022-12-07T04:57:00;102910.03;;;-17.03;77.07
63819;BME280;49970;54.976;73.248;2022-12-07T04:59:27;102911.03;;;-17.01;76.67
63819;BME280;49970;54.976;73.248;2022-12-07T05:01:53;102901.66;;;-17.02;77.41
63819;BME280;49970;54.976;73.248;2022-12-07T05:04:19;102904.84;;;-16.95;77.42
63819;BME280;49970;54.976;73.248;2022-12-07T05:06:51;102910.00;;;-16.93;76.78
63819;BME280;49970;54.976;73.248;2022-12-07T05:09:17;102899.88;;;-16.93;77.28
63819;BME280;49970;54.976;73.248;2022-12-07T05:11:43;102908.78;;;-16.88;76.94
63819;BME280;49970;54.976;73.248;2022-12-07T05:14:18;102910.78;;;-16.84;77.05
63819;BME280;49970;54.976;73.248;2022-12-07T05:16:46;102913.56;;;-16.81;77.49
63819;BME280;49970;54.976;73.248;2022-12-07T05:19:18;102905.22;;;-16.80;77.40
63819;BME280;49970;54.976;73.248;2022-12-07T05:21:45;102920.28;;;-16.81;76.67
63819;BME280;49970;54.976;73.248;2022-12-07T05:24:17;102916.84;;;-16.82;76.89
63819;BME280;49970;54.976;73.248;2022-12-07T05:26:44;102924.34;;;-16.83;77.50
63819;BME280;49970;54.976;73.248;2022-12-07T05:29:13;102914.97;;;-16.95;77.16
63819;BME280;49970;54.976;73.248;2022-12-07T05:31:39;102912.94;;;-16.99;77.07
63819;BME280;49970;54.976;73.248;2022-12-07T05:34:06;102928.53;;;-16.94;77.23
63819;BME280;49970;54.976;73.248;2022-12-07T05:36:32;102922.47;;;-16.96;77.54
63819;BME280;49970;54.976;73.248;2022-12-07T05:38:59;102912.56;;;-17.03;77.13
63819;BME280;49970;54.976;73.248;2022-12-07T05:41:26;102913.34;;;-17.04;77.47
63819;BME280;49970;54.976;73.248;2022-12-07T05:44:10;102910.44;;;-17.09;77.09
63819;BME280;49970;54.976;73.248;2022-12-07T05:46:37;102884.31;;;-17.18;76.19
63819;BME280;49970;54.976;73.248;2022-12-07T05:49:03;102898.91;;;-17.16;76.66
63819;BME280;49970;54.976;73.248;2022-12-07T05:51:29;102890.03;;;-17.21;77.01
63819;BME280;49970;54.976;73.248;2022-12-07T05:54:05;102889.91;;;-17.22;76.57
63819;BME280;49970;54.976;73.248;2022-12-07T05:56:31;102875.84;;;-17.29;76.83
63819;BME280;49970;54.976;73.248;2022-12-07T05:58:58;102897.66;;;-17.21;77.26
63819;BME280;49970;54.976;73.248;2022-12-07T06:01:42;102882.56;;;-17.19;77.29
63819;BME280;49970;54.976;73.248;2022-12-07T06:04:08;102880.28;;;-17.16;76.66
63819;BME280;49970;54.976;73.248;2022-12-07T06:06:40;102842.31;;;-17.37;76.84
63819;BME280;49970;54.976;73.248;2022-12-07T06:09:06;102872.69;;;-17.16;76.30
63819;BME280;49970;54.976;73.248;2022-12-07T06:11:33;102870.25;;;-17.15;77.07
63819;BME280;49970;54.976;73.248;2022-12-07T06:14:17;102865.94;;;-17.05;77.19
63819;BME280;49970;54.976;73.248;2022-12-07T06:16:43;102868.22;;;-16.98;76.45
63819;BME280;49970;54.976;73.248;2022-12-07T06:19:10;102865.28;;;-16.93;77.05
63819;BME280;49970;54.976;73.248;2022-12-07T06:21:36;102860.47;;;-16.90;77.15
63819;BME280;49970;54.976;73.248;2022-12-07T06:24:02;102863.16;;;-16.88;76.64
63819;BME280;49970;54.976;73.248;2022-12-07T06:26:29;102855.53;;;-16.88;76.25
63819;BME280;49970;54.976;73.248;2022-12-07T06:28:55;102838.53;;;-16.89;76.61
63819;BME280;49970;54.976;73.248;2022-12-07T06:31:26;102852.19;;;-16.77;77.23
63819;BME280;49970;54.976;73.248;2022-12-07T06:34:04;102843.19;;;-16.73;76.76
63819;BME280;49970;54.976;73.248;2022-12-07T06:36:31;102850.75;;;-16.63;76.99
63819;BME280;49970;54.976;73.248;2022-12-07T06:38:58;102859.75;;;-16.67;76.61
63819;BME280;49970;54.976;73.248;2022-12-07T06:41:25;102869.00;;;-16.67;76.87
63819;BME280;49970;54.976;73.248;2022-12-07T06:43:51;102868.50;;;-16.63;76.93
63819;BME280;49970;54.976;73.248;2022-12-07T06:46:17;102867.97;;;-16.59;76.90
63819;BME280;49970;54.976;73.248;2022-12-07T06:48:54;102861.25;;;-16.59;76.72
63819;BME280;49970;54.976;73.248;2022-12-07T06:51:21;102861.09;;;-16.60;76.42
63819;BME280;49970;54.976;73.248;2022-12-07T06:53:47;102833.72;;;-16.64;76.25
63819;BME280;49970;54.976;73.248;2022-12-07T06:56:14;102853.84;;;-16.55;76.92
63819;BME280;49970;54.976;73.248;2022-12-07T06:58:40;102854.34;;;-16.49;76.63
63819;BME280;49970;54.976;73.248;2022-12-07T07:01:10;102856.91;;;-16.49;76.22
63819;BME280;49970;54.976;73.248;2022-12-07T07:03:42;102847.22;;;-16.43;76.51
63819;BME280;49970;54.976;73.248;2022-12-07T07:06:09;102848.09;;;-16.43;76.62
63819;BME280;49970;54.976;73.248;2022-12-07T07:08:36;102852.44;;;-16.42;76.63
63819;BME280;49970;54.976;73.248;2022-12-07T07:11:03;102853.16;;;-16.43;76.47
63819;BME280;49970;54.976;73.248;2022-12-07T07:13:30;102830.88;;;-16.47;76.48
63819;BME280;49970;54.976;73.248;2022-12-07T07:15:56;102836.78;;;-16.36;76.68
63819;BME280;49970;54.976;73.248;2022-12-07T07:18:22;102826.41;;;-16.39;76.40
63819;BME280;49970;54.976;73.248;2022-12-07T07:20:50;102823.34;;;-16.35;76.31
63819;BME280;49970;54.976;73.248;2022-12-07T07:23:17;102829.63;;;-16.30;75.98
63819;BME280;49970;54.976;73.248;2022-12-07T07:25:47;102829.50;;;-16.21;76.51
63819;BME280;49970;54.976;73.248;2022-12-07T07:28:14;102816.31;;;-16.27;76.03
63819;BME280;49970;54.976;73.248;2022-12-07T07:30:44;102832.91;;;-16.21;76.27
63819;BME280;49970;54.976;73.248;2022-12-07T07:33:11;102821.75;;;-16.23;76.22
63819;BME280;49970;54.976;73.248;2022-12-07T07:35:37;102825.16;;;-16.22;76.09
63819;BME280;49970;54.976;73.248;2022-12-07T07:38:05;102816.22;;;-16.29;76.48
63819;BME280;49970;54.976;73.248;2022-12-07T07:40:33;102817.34;;;-16.25;76.11
63819;BME280;49970;54.976;73.248;2022-12-07T07:43:03;102823.41;;;-16.23;76.05
63819;BME280;49970;54.976;73.248;2022-12-07T07:45:29;102830.97;;;-16.13;76.40
63819;BME280;49970;54.976;73.248;2022-12-07T07:47:56;102824.47;;;-16.10;76.31
63819;BME280;49970;54.976;73.248;2022-12-07T07:50:22;102805.22;;;-16.18;76.22
63819;BME280;49970;54.976;73.248;2022-12-07T07:52:49;102819.28;;;-16.11;76.25
63819;BME280;49970;54.976;73.248;2022-12-07T07:55:15;102815.75;;;-16.13;76.25
63819;BME280;49970;54.976;73.248;2022-12-07T07:57:42;102807.13;;;-16.15;76.23
63819;BME280;49970;54.976;73.248;2022-12-07T08:00:12;102804.94;;;-16.11;75.91
63819;BME280;49970;54.976;73.248;2022-12-07T08:02:40;102818.09;;;-16.04;76.40
63819;BME280;49970;54.976;73.248;2022-12-07T08:05:06;102806.94;;;-16.06;76.55
63819;BME280;49970;54.976;73.248;2022-12-07T08:07:33;102801.84;;;-16.06;76.67
63819;BME280;49970;54.976;73.248;2022-12-07T08:09:59;102822.13;;;-15.96;76.45
63819;BME280;49970;54.976;73.248;2022-12-07T08:12:25;102820.31;;;-15.97;76.74
63819;BME280;49970;54.976;73.248;2022-12-07T08:14:51;102822.22;;;-15.95;76.51
63819;BME280;49970;54.976;73.248;2022-12-07T08:17:18;102820.81;;;-15.91;76.67
63819;BME280;49970;54.976;73.248;2022-12-07T08:19:44;102820.13;;;-15.89;77.00
63819;BME280;49970;54.976;73.248;2022-12-07T08:22:10;102823.69;;;-15.87;76.63
63819;BME280;49970;54.976;73.248;2022-12-07T08:24:41;102794.50;;;-16.03;76.76
63819;BME280;49970;54.976;73.248;2022-12-07T08:27:09;102804.09;;;-15.99;76.57
63819;BME280;49970;54.976;73.248;2022-12-07T08:29:43;102816.38;;;-15.94;76.50
63819;BME280;49970;54.976;73.248;2022-12-07T08:32:09;102816.25;;;-15.95;76.26
63819;BME280;49970;54.976;73.248;2022-12-07T08:34:35;102818.81;;;-15.95;76.77
63819;BME280;49970;54.976;73.248;2022-12-07T08:37:02;102814.59;;;-15.95;76.79
63819;BME280;49970;54.976;73.248;2022-12-07T08:39:29;102805.97;;;-15.97;77.09
63819;BME280;49970;54.976;73.248;2022-12-07T08:41:55;102811.19;;;-15.95;77.09
63819;BME280;49970;54.976;73.248;2022-12-07T08:44:21;102811.44;;;-15.92;76.80
63819;BME280;49970;54.976;73.248;2022-12-07T08:46:55;102792.00;;;-15.92;76.81
63819;BME280;49970;54.976;73.248;2022-12-07T08:49:30;102804.69;;;-15.92;76.86
63819;BME280;49970;54.976;73.248;2022-12-07T08:51:58;102789.50;;;-16.02;76.93
63819;BME280;49970;54.976;73.248;2022-12-07T08:54:25;102786.34;;;-15.99;76.83
63819;BME280;49970;54.976;73.248;2022-12-07T08:56:51;102805.56;;;-15.91;76.80
63819;BME280;49970;54.976;73.248;2022-12-07T08:59:20;102803.81;;;-15.92;76.95
63819;BME280;49970;54.976;73.248;2022-12-07T09:01:47;102801.28;;;-15.92;76.37
63819;BME280;49970;54.976;73.248;2022-12-07T09:04:18;102793.41;;;-15.95;76.26
63819;BME280;49970;54.976;73.248;2022-12-07T09:06:44;102799.81;;;-15.89;76.40
63819;BME280;49970;54.976;73.248;2022-12-07T09:09:20;102794.53;;;-15.92;76.43
63819;BME280;49970;54.976;73.248;2022-12-07T09:11:46;102799.97;;;-15.87;76.83
63819;BME280;49970;54.976;73.248;2022-12-07T09:14:13;102796.63;;;-15.86;76.17
63819;BME280;49970;54.976;73.248;2022-12-07T09:16:41;102797.88;;;-15.81;76.35
63819;BME280;49970;54.976;73.248;2022-12-07T09:19:10;102794.91;;;-15.75;75.96
63819;BME280;49970;54.976;73.248;2022-12-07T09:21:36;102789.72;;;-15.77;75.81
63819;BME280;49970;54.976;73.248;2022-12-07T09:24:05;102793.66;;;-15.80;75.80
63819;BME280;49970;54.976;73.248;2022-12-07T09:26:31;102794.44;;;-15.81;75.38
63819;BME280;49970;54.976;73.248;2022-12-07T09:28:57;102788.25;;;-15.85;74.70
63819;BME280;49970;54.976;73.248;2022-12-07T09:31:24;102787.25;;;-15.87;74.96
63819;BME280;49970;54.976;73.248;2022-12-07T09:34:00;102783.72;;;-15.89;74.86
63819;BME280;49970;54.976;73.248;2022-12-07T09:36:27;102796.75;;;-15.85;74.54
63819;BME280;49970;54.976;73.248;2022-12-07T09:38:54;102795.88;;;-15.85;74.37
63819;BME280;49970;54.976;73.248;2022-12-07T09:41:21;102787.81;;;-15.91;75.05
63819;BME280;49970;54.976;73.248;2022-12-07T09:43:48;102785.47;;;-15.88;74.68
63819;BME280;49970;54.976;73.248;2022-12-07T09:46:16;102789.31;;;-15.93;74.13
63819;BME280;49970;54.976;73.248;2022-12-07T09:48:45;102785.81;;;-15.95;74.04
63819;BME280;49970;54.976;73.248;2022-12-07T09:51:22;102786.16;;;-15.91;74.48
63819;BME280;49970;54.976;73.248;2022-12-07T09:53:51;102783.50;;;-15.92;74.13
63819;BME280;49970;54.976;73.248;2022-12-07T09:56:18;102787.91;;;-15.90;74.10
63819;BME280;49970;54.976;73.248;2022-12-07T09:58:46;102784.25;;;-15.93;74.39
63819;BME280;49970;54.976;73.248;2022-12-07T10:01:19;102790.34;;;-15.91;74.59
63819;BME280;49970;54.976;73.248;2022-12-07T10:03:52;102778.03;;;-15.97;74.11
63819;BME280;49970;54.976;73.248;2022-12-07T10:06:19;102785.47;;;-16.00;73.44
63819;BME280;49970;54.976;73.248;2022-12-07T10:08:45;102786.69;;;-15.95;73.51
63819;BME280;49970;54.976;73.248;2022-12-07T10:11:11;102784.78;;;-15.97;73.12
63819;BME280;49970;54.976;73.248;2022-12-07T10:13:45;102794.19;;;-15.96;73.34
63819;BME280;49970;54.976;73.248;2022-12-07T10:16:35;102791.66;;;-15.96;73.62
63819;BME280;49970;54.976;73.248;2022-12-07T10:19:26;102792.19;;;-16.00;73.54
63819;BME280;49970;54.976;73.248;2022-12-07T10:22:15;102789.28;;;-16.05;73.38
63819;BME280;49970;54.976;73.248;2022-12-07T10:24:46;102786.72;;;-16.05;72.97
63819;BME280;49970;54.976;73.248;2022-12-07T10:27:22;102787.66;;;-16.04;73.30
63819;BME280;49970;54.976;73.248;2022-12-07T10:29:58;102776.13;;;-16.11;73.29
63819;BME280;49970;54.976;73.248;2022-12-07T10:32:30;102783.78;;;-15.99;73.51
63819;BME280;49970;54.976;73.248;2022-12-07T10:35:19;102782.13;;;-15.99;73.10
63819;BME280;49970;54.976;73.248;2022-12-07T10:37:56;102781.25;;;-15.99;73.70
63819;BME280;49970;54.976;73.248;2022-12-07T10:40:31;102781.91;;;-16.02;73.35
63819;BME280;49970;54.976;73.248;2022-12-07T10:43:15;102780.25;;;-16.01;73.41
63819;BME280;49970;54.976;73.248;2022-12-07T10:46:07;102771.63;;;-16.03;73.77
63819;BME280;49970;54.976;73.248;2022-12-07T10:51:42;102775.59;;;-16.07;73.77
63819;BME280;49970;54.976;73.248;2022-12-07T10:54:24;102780.56;;;-16.09;73.85
63819;BME280;49970;54.976;73.248;2022-12-07T10:57:02;102778.56;;;-16.13;73.91
63819;BME280;49970;54.976;73.248;2022-12-07T11:10:57;102761.97;;;-16.19;74.29
63819;BME280;49970;54.976;73.248;2022-12-07T11:13:48;102745.88;;;-16.20;74.08
63819;BME280;49970;54.976;73.248;2022-12-07T11:21:48;102768.94;;;-16.17;74.34
63819;BME280;49970;54.976;73.248;2022-12-07T11:24:44;102765.94;;;-16.23;74.27
63819;BME280;49970;54.976;73.248;2022-12-07T11:30:29;102761.81;;;-16.33;74.97
63819;BME280;49970;54.976;73.248;2022-12-07T11:33:09;102760.94;;;-16.33;74.75
63819;BME280;49970;54.976;73.248;2022-12-07T11:38:52;102760.94;;;-16.33;74.57
63819;BME280;49970;54.976;73.248;2022-12-07T11:41:23;102763.47;;;-16.33;74.78
63819;BME280;49970;54.976;73.248;2022-12-07T11:44:03;102758.41;;;-16.33;74.46
63819;BME280;49970;54.976;73.248;2022-12-07T11:49:45;102754.63;;;-16.38;74.76
63819;BME280;49970;54.976;73.248;2022-12-07T11:55:23;102749.84;;;-16.45;74.81
63819;BME280;49970;54.976;73.248;2022-12-07T11:58:17;102738.84;;;-16.56;74.69
63819;BME280;49970;54.976;73.248;2022-12-07T12:00:53;102746.34;;;-16.58;74.84
63819;BME280;49970;54.976;73.248;2022-12-07T12:03:30;102732.50;;;-16.73;75.29
63819;BME280;49970;54.976;73.248;2022-12-07T12:05:59;102747.94;;;-16.70;74.93
63819;BME280;49970;54.976;73.248;2022-12-07T12:22:41;102752.25;;;-16.91;75.84
63819;BME280;49970;54.976;73.248;2022-12-07T12:25:36;102751.13;;;-16.94;75.55
63819;BME280;49970;54.976;73.248;2022-12-07T12:28:29;102750.88;;;-16.97;75.45
63819;BME280;49970;54.976;73.248;2022-12-07T12:31:07;102755.72;;;-17.00;75.29
63819;BME280;49970;54.976;73.248;2022-12-07T12:33:47;102744.19;;;-17.07;75.54
63819;BME280;49970;54.976;73.248;2022-12-07T12:36:30;102736.25;;;-17.12;75.39
63819;BME280;49970;54.976;73.248;2022-12-07T12:46:52;102757.75;;;-17.06;75.85
63819;BME280;49970;54.976;73.248;2022-12-07T12:54:23;102744.00;;;-17.20;75.54
63819;BME280;49970;54.976;73.248;2022-12-07T13:02:27;102754.53;;;-17.26;76.39
63819;BME280;49970;54.976;73.248;2022-12-07T13:34:34;102740.91;;;-17.58;76.08
63819;BME280;49970;54.976;73.248;2022-12-07T13:37:10;102730.28;;;-17.65;75.51
63819;BME280;49970;54.976;73.248;2022-12-07T13:39:46;102738.63;;;-17.66;75.86
63819;BME280;49970;54.976;73.248;2022-12-07T13:42:28;102729.03;;;-17.70;75.85
63819;BME280;49970;54.976;73.248;2022-12-07T13:45:01;102736.50;;;-17.71;75.67
63819;BME280;49970;54.976;73.248;2022-12-07T13:47:54;102739.03;;;-17.71;76.92
63819;BME280;49970;54.976;73.248;2022-12-07T13:50:31;102738.69;;;-17.76;75.54
63819;BME280;49970;54.976;73.248;2022-12-07T13:53:12;102731.84;;;-17.77;76.78
63819;BME280;49970;54.976;73.248;2022-12-07T13:55:45;102731.84;;;-17.77;75.54
63819;BME280;49970;54.976;73.248;2022-12-07T13:58:22;102730.19;;;-17.76;76.43
63819;BME280;49970;54.976;73.248;2022-12-07T14:00:49;102732.72;;;-17.76;75.84
63819;BME280;49970;54.976;73.248;2022-12-07T14:05:43;102723.72;;;-17.73;76.92
63819;BME280;49970;54.976;73.248;2022-12-07T14:10:40;102713.75;;;-17.81;76.85
63819;BME280;49970;54.976;73.248;2022-12-07T14:13:29;102713.66;;;-17.83;76.12
63819;BME280;49970;54.976;73.248;2022-12-07T14:15:57;102726.03;;;-17.76;76.83
63819;BME280;49970;54.976;73.248;2022-12-07T14:18:39;102721.50;;;-17.80;77.12
63819;BME280;49970;54.976;73.248;2022-12-07T14:21:20;102702.13;;;-17.90;75.88
63819;BME280;49970;54.976;73.248;2022-12-07T14:24:08;102717.53;;;-17.76;75.87
63819;BME280;49970;54.976;73.248;2022-12-07T14:26:35;102724.41;;;-17.75;75.88
63819;BME280;49970;54.976;73.248;2022-12-07T14:29:20;102727.03;;;-17.74;77.25
63819;BME280;49970;54.976;73.248;2022-12-07T14:31:58;102719.34;;;-17.75;76.78
63819;BME280;49970;54.976;73.248;2022-12-07T14:34:29;102716.53;;;-17.78;76.23
63819;BME280;49970;54.976;73.248;2022-12-07T14:36:55;102725.63;;;-17.70;76.62
63819;BME280;49970;54.976;73.248;2022-12-07T14:39:32;102719.53;;;-17.72;77.23
63819;BME280;49970;54.976;73.248;2022-12-07T14:42:03;102719.34;;;-17.75;77.20
63819;BME280;49970;54.976;73.248;2022-12-07T14:44:29;102719.44;;;-17.74;76.88
63819;BME280;49970;54.976;73.248;2022-12-07T14:46:55;102684.28;;;-17.91;76.15
63819;BME280;49970;54.976;73.248;2022-12-07T14:49:21;102708.69;;;-17.81;76.02
63819;BME280;49970;54.976;73.248;2022-12-07T14:51:58;102699.97;;;-17.85;76.50
63819;BME280;49970;54.976;73.248;2022-12-07T14:54:26;102705.16;;;-17.83;77.25
63819;BME280;49970;54.976;73.248;2022-12-07T14:56:55;102697.56;;;-17.94;76.75